sensor_id;sensor_type;location;lat;lon;timestamp;P1;durP1;ratioP1;P2;durP2;ratioP2
41275;SDS011;27010;47.718;12.912;2023-09-30T00:00:27;6.13;;;4.33;;
41275;SDS011;27010;47.718;12.912;2023-09-30T00:03:29;7.00;;;5.20;;
41275;SDS011;27010;47.718;12.912;2023-09-30T00:06:32;5.37;;;4.27;;
41275;SDS011;27010;47.718;12.912;2023-09-30T00:09:34;9.33;;;4.63;;
41275;SDS011;27010;47.718;12.912;2023-09-30T00:12:37;7.33;;;4.73;;
41275;SDS011;27010;47.718;12.912;2023-09-30T00:15:39;10.90;;;6.27;;
41275;SDS011;27010;47.718;12.912;2023-09-30T00:18:43;10.97;;;7.17;;
41275;SDS011;27010;47.718;12.912;2023-09-30T00:21:46;12.23;;;5.57;;
41275;SDS011;27010;47.718;12.912;2023-09-30T00:24:49;6.30;;;4.70;;
41275;SDS011;27010;47.718;12.912;2023-09-30T00:27:52;5.87;;;4.37;;
41275;SDS011;27010;47.718;12.912;2023-09-30T00:30:54;8.83;;;4.67;;
41275;SDS011;27010;47.718;12.912;2023-09-30T00:33:57;6.93;;;4.03;;
41275;SDS011;27010;47.718;12.912;2023-09-30T00:37:00;4.50;;;4.07;;
41275;SDS011;27010;47.718;12.912;2023-09-30T00:40:02;9.87;;;5.07;;
41275;SDS011;27010;47.718;12.912;2023-09-30T00:43:05;5.40;;;4.17;;
41275;SDS011;27010;47.718;12.912;2023-09-30T00:49:31;8.67;;;5.20;;
41275;SDS011;27010;47.718;12.912;2023-09-30T00:52:35;10.53;;;5.30;;
41275;SDS011;27010;47.718;12.912;2023-09-30T00:55:38;8.27;;;5.23;;
41275;SDS011;27010;47.718;12.912;2023-09-30T00:58:40;9.57;;;6.20;;
41275;SDS011;27010;47.718;12.912;2023-09-30T01:01:43;11.70;;;6.57;;
41275;SDS011;27010;47.718;12.912;2023-09-30T01:04:47;15.20;;;6.73;;
41275;SDS011;27010;47.718;12.912;2023-09-30T01:07:49;12.90;;;6.93;;
41275;SDS011;27010;47.718;12.912;2023-09-30T01:10:50;15.57;;;7.57;;
41275;SDS011;27010;47.718;12.912;2023-09-30T01:13:53;15.13;;;8.80;;
41275;SDS011;27010;47.718;12.912;2023-09-30T01:16:55;14.13;;;7.00;;
41275;SDS011;27010;47.718;12.912;2023-09-30T01:19:59;16.50;;;8.20;;
41275;SDS011;27010;47.718;12.912;2023-09-30T01:23:01;15.77;;;8.30;;
41275;SDS011;27010;47.718;12.912;2023-09-30T01:26:06;15.40;;;7.83;;
41275;SDS011;27010;47.718;12.912;2023-09-30T01:29:11;13.23;;;7.33;;
41275;SDS011;27010;47.718;12.912;2023-09-30T01:32:13;16.07;;;7.63;;
41275;SDS011;27010;47.718;12.912;2023-09-30T01:35:16;14.10;;;7.17;;
41275;SDS011;27010;47.718;12.912;2023-09-30T01:38:18;19.03;;;8.50;;
41275;SDS011;27010;47.718;12.912;2023-09-30T01:41:20;13.67;;;8.40;;
41275;SDS011;27010;47.718;12.912;2023-09-30T01:44:22;20.37;;;8.60;;
41275;SDS011;27010;47.718;12.912;2023-09-30T01:47:24;16.70;;;8.13;;
41275;SDS011;27010;47.718;12.912;2023-09-30T01:50:26;16.83;;;8.13;;
41275;SDS011;27010;47.718;12.912;2023-09-30T01:53:28;14.27;;;7.60;;
41275;SDS011;27010;47.718;12.912;2023-09-30T01:56:30;14.77;;;7.97;;
41275;SDS011;27010;47.718;12.912;2023-09-30T01:59:33;17.77;;;8.07;;
41275;SDS011;27010;47.718;12.912;2023-09-30T02:02:36;19.67;;;8.53;;
41275;SDS011;27010;47.718;12.912;2023-09-30T02:05:38;13.83;;;7.97;;
41275;SDS011;27010;47.718;12.912;2023-09-30T02:08:41;15.17;;;7.67;;
41275;SDS011;27010;47.718;12.912;2023-09-30T02:11:44;13.83;;;8.23;;
41275;SDS011;27010;47.718;12.912;2023-09-30T02:14:46;19.00;;;9.07;;
41275;SDS011;27010;47.718;12.912;2023-09-30T02:17:48;14.80;;;8.13;;
41275;SDS011;27010;47.718;12.912;2023-09-30T02:20:52;15.33;;;7.63;;
41275;SDS011;27010;47.718;12.912;2023-09-30T02:23:55;15.10;;;6.83;;
41275;SDS011;27010;47.718;12.912;2023-09-30T02:26:57;18.07;;;8.00;;
41275;SDS011;27010;47.718;12.912;2023-09-30T02:30:00;13.10;;;7.20;;
41275;SDS011;27010;47.718;12.912;2023-09-30T02:33:02;15.50;;;7.63;;
41275;SDS011;27010;47.718;12.912;2023-09-30T02:36:06;15.67;;;7.77;;
41275;SDS011;27010;47.718;12.912;2023-09-30T02:39:10;16.90;;;6.80;;
41275;SDS011;27010;47.718;12.912;2023-09-30T02:42:12;14.27;;;8.23;;
41275;SDS011;27010;47.718;12.912;2023-09-30T02:45:15;16.33;;;6.93;;
41275;SDS011;27010;47.718;12.912;2023-09-30T02:48:19;14.20;;;6.60;;
41275;SDS011;27010;47.718;12.912;2023-09-30T02:51:21;12.87;;;6.73;;
41275;SDS011;27010;47.718;12.912;2023-09-30T02:54:23;16.20;;;7.33;;
41275;SDS011;27010;47.718;12.912;2023-09-30T02:57:25;15.87;;;7.50;;
41275;SDS011;27010;47.718;12.912;2023-09-30T03:00:29;15.10;;;7.33;;
41275;SDS011;27010;47.718;12.912;2023-09-30T03:03:35;15.17;;;6.60;;
41275;SDS011;27010;47.718;12.912;2023-09-30T03:06:37;14.07;;;6.67;;
41275;SDS011;27010;47.718;12.912;2023-09-30T03:09:40;18.13;;;6.83;;
41275;SDS011;27010;47.718;12.912;2023-09-30T03:12:42;14.97;;;7.33;;
41275;SDS011;27010;47.718;12.912;2023-09-30T03:15:44;16.47;;;7.47;;
41275;SDS011;27010;47.718;12.912;2023-09-30T03:18:46;13.57;;;7.10;;
41275;SDS011;27010;47.718;12.912;2023-09-30T03:21:49;16.40;;;7.63;;
41275;SDS011;27010;47.718;12.912;2023-09-30T03:24:52;13.77;;;7.30;;
41275;SDS011;27010;47.718;12.912;2023-09-30T03:27:58;17.73;;;7.20;;
41275;SDS011;27010;47.718;12.912;2023-09-30T03:31:01;24.97;;;11.17;;
41275;SDS011;27010;47.718;12.912;2023-09-30T03:34:03;44.03;;;17.30;;
41275;SDS011;27010;47.718;12.912;2023-09-30T03:37:06;29.07;;;12.10;;
41275;SDS011;27010;47.718;12.912;2023-09-30T03:40:08;24.60;;;11.00;;
41275;SDS011;27010;47.718;12.912;2023-09-30T03:43:16;19.53;;;8.20;;
41275;SDS011;27010;47.718;12.912;2023-09-30T03:46:18;19.23;;;7.47;;
41275;SDS011;27010;47.718;12.912;2023-09-30T03:49:21;17.27;;;7.20;;
41275;SDS011;27010;47.718;12.912;2023-09-30T03:52:23;16.60;;;7.60;;
41275;SDS011;27010;47.718;12.912;2023-09-30T03:55:27;18.30;;;7.50;;
41275;SDS011;27010;47.718;12.912;2023-09-30T03:58:31;16.90;;;7.33;;
41275;SDS011;27010;47.718;12.912;2023-09-30T04:01:34;17.00;;;6.97;;
41275;SDS011;27010;47.718;12.912;2023-09-30T04:04:36;15.70;;;7.87;;
41275;SDS011;27010;47.718;12.912;2023-09-30T04:07:39;18.07;;;7.10;;
41275;SDS011;27010;47.718;12.912;2023-09-30T04:10:41;13.57;;;7.37;;
41275;SDS011;27010;47.718;12.912;2023-09-30T04:13:44;16.70;;;6.97;;
41275;SDS011;27010;47.718;12.912;2023-09-30T04:16:46;16.37;;;7.87;;
41275;SDS011;27010;47.718;12.912;2023-09-30T04:19:48;17.70;;;8.40;;
41275;SDS011;27010;47.718;12.912;2023-09-30T04:22:53;20.20;;;7.03;;
41275;SDS011;27010;47.718;12.912;2023-09-30T04:25:59;16.33;;;7.40;;
41275;SDS011;27010;47.718;12.912;2023-09-30T04:29:01;16.30;;;8.17;;
41275;SDS011;27010;47.718;12.912;2023-09-30T04:32:04;14.13;;;7.23;;
41275;SDS011;27010;47.718;12.912;2023-09-30T04:35:07;14.67;;;7.43;;
41275;SDS011;27010;47.718;12.912;2023-09-30T04:38:09;16.40;;;7.43;;
41275;SDS011;27010;47.718;12.912;2023-09-30T04:41:12;18.60;;;7.47;;
41275;SDS011;27010;47.718;12.912;2023-09-30T04:44:14;12.03;;;6.40;;
41275;SDS011;27010;47.718;12.912;2023-09-30T04:47:17;15.10;;;7.20;;
41275;SDS011;27010;47.718;12.912;2023-09-30T04:50:20;14.20;;;7.37;;
41275;SDS011;27010;47.718;12.912;2023-09-30T04:53:24;15.77;;;7.10;;
41275;SDS011;27010;47.718;12.912;2023-09-30T04:56:26;16.90;;;7.17;;
41275;SDS011;27010;47.718;12.912;2023-09-30T04:59:28;17.33;;;7.87;;
41275;SDS011;27010;47.718;12.912;2023-09-30T05:02:32;19.53;;;7.83;;
41275;SDS011;27010;47.718;12.912;2023-09-30T05:05:33;16.70;;;7.60;;
41275;SDS011;27010;47.718;12.912;2023-09-30T05:08:36;17.83;;;8.17;;
41275;SDS011;27010;47.718;12.912;2023-09-30T05:11:38;15.17;;;7.13;;
41275;SDS011;27010;47.718;12.912;2023-09-30T05:14:41;16.53;;;7.23;;
41275;SDS011;27010;47.718;12.912;2023-09-30T05:17:43;16.30;;;7.60;;
41275;SDS011;27010;47.718;12.912;2023-09-30T05:20:49;15.80;;;7.50;;
41275;SDS011;27010;47.718;12.912;2023-09-30T05:23:51;17.93;;;8.07;;
41275;SDS011;27010;47.718;12.912;2023-09-30T05:26:54;19.10;;;8.10;;
41275;SDS011;27010;47.718;12.912;2023-09-30T05:29:56;17.43;;;7.90;;
41275;SDS011;27010;47.718;12.912;2023-09-30T05:32:59;17.33;;;7.63;;
41275;SDS011;27010;47.718;12.912;2023-09-30T05:36:02;16.93;;;7.30;;
41275;SDS011;27010;47.718;12.912;2023-09-30T05:39:05;15.93;;;7.37;;
41275;SDS011;27010;47.718;12.912;2023-09-30T05:42:08;11.60;;;6.37;;
41275;SDS011;27010;47.718;12.912;2023-09-30T05:45:11;14.30;;;7.10;;
41275;SDS011;27010;47.718;12.912;2023-09-30T05:48:17;15.93;;;6.67;;
41275;SDS011;27010;47.718;12.912;2023-09-30T05:51:19;16.87;;;7.83;;
41275;SDS011;27010;47.718;12.912;2023-09-30T05:54:21;13.63;;;6.57;;
41275;SDS011;27010;47.718;12.912;2023-09-30T05:57:24;14.23;;;6.53;;
41275;SDS011;27010;47.718;12.912;2023-09-30T06:00:26;14.00;;;7.10;;
41275;SDS011;27010;47.718;12.912;2023-09-30T06:03:35;18.77;;;7.83;;
41275;SDS011;27010;47.718;12.912;2023-09-30T06:06:41;13.67;;;7.13;;
41275;SDS011;27010;47.718;12.912;2023-09-30T06:09:47;16.60;;;7.13;;
41275;SDS011;27010;47.718;12.912;2023-09-30T06:12:51;19.83;;;7.83;;
41275;SDS011;27010;47.718;12.912;2023-09-30T06:15:58;17.23;;;8.03;;
41275;SDS011;27010;47.718;12.912;2023-09-30T06:19:00;19.43;;;7.93;;
41275;SDS011;27010;47.718;12.912;2023-09-30T06:22:03;19.53;;;8.47;;
41275;SDS011;27010;47.718;12.912;2023-09-30T06:25:06;13.97;;;7.67;;
41275;SDS011;27010;47.718;12.912;2023-09-30T06:28:09;16.17;;;7.73;;
41275;SDS011;27010;47.718;12.912;2023-09-30T06:31:11;15.30;;;7.50;;
41275;SDS011;27010;47.718;12.912;2023-09-30T06:34:14;16.20;;;8.27;;
41275;SDS011;27010;47.718;12.912;2023-09-30T06:37:16;16.70;;;7.33;;
41275;SDS011;27010;47.718;12.912;2023-09-30T06:40:19;17.67;;;7.70;;
41275;SDS011;27010;47.718;12.912;2023-09-30T06:43:22;18.77;;;8.70;;
41275;SDS011;27010;47.718;12.912;2023-09-30T06:46:24;20.07;;;7.43;;
41275;SDS011;27010;47.718;12.912;2023-09-30T06:49:26;17.43;;;8.37;;
41275;SDS011;27010;47.718;12.912;2023-09-30T06:52:28;19.73;;;8.10;;
41275;SDS011;27010;47.718;12.912;2023-09-30T06:55:30;14.70;;;7.27;;
41275;SDS011;27010;47.718;12.912;2023-09-30T06:58:33;19.00;;;7.93;;
41275;SDS011;27010;47.718;12.912;2023-09-30T07:01:35;19.60;;;7.83;;
41275;SDS011;27010;47.718;12.912;2023-09-30T07:04:38;15.83;;;7.57;;
41275;SDS011;27010;47.718;12.912;2023-09-30T07:07:40;19.03;;;8.67;;
41275;SDS011;27010;47.718;12.912;2023-09-30T07:10:45;19.77;;;8.37;;
41275;SDS011;27010;47.718;12.912;2023-09-30T07:13:52;17.43;;;7.47;;
41275;SDS011;27010;47.718;12.912;2023-09-30T07:16:54;13.80;;;6.90;;
41275;SDS011;27010;47.718;12.912;2023-09-30T07:19:56;15.23;;;7.50;;
41275;SDS011;27010;47.718;12.912;2023-09-30T07:22:59;16.47;;;8.40;;
41275;SDS011;27010;47.718;12.912;2023-09-30T07:26:22;17.00;;;8.40;;
41275;SDS011;27010;47.718;12.912;2023-09-30T07:29:26;16.07;;;8.30;;
41275;SDS011;27010;47.718;12.912;2023-09-30T07:32:28;16.27;;;8.20;;
41275;SDS011;27010;47.718;12.912;2023-09-30T07:35:30;16.17;;;7.93;;
41275;SDS011;27010;47.718;12.912;2023-09-30T07:38:32;19.55;;;7.75;;
41275;SDS011;27010;47.718;12.912;2023-09-30T07:41:35;17.03;;;8.07;;
41275;SDS011;27010;47.718;12.912;2023-09-30T07:44:40;15.55;;;6.75;;
41275;SDS011;27010;47.718;12.912;2023-09-30T07:47:44;16.52;;;8.00;;
41275;SDS011;27010;47.718;12.912;2023-09-30T07:50:48;16.77;;;8.10;;
41275;SDS011;27010;47.718;12.912;2023-09-30T07:53:50;14.10;;;7.00;;
41275;SDS011;27010;47.718;12.912;2023-09-30T07:56:52;19.48;;;8.38;;
41275;SDS011;27010;47.718;12.912;2023-09-30T07:59:55;16.48;;;7.40;;
41275;SDS011;27010;47.718;12.912;2023-09-30T08:02:57;16.85;;;8.23;;
41275;SDS011;27010;47.718;12.912;2023-09-30T08:06:02;15.55;;;7.70;;
41275;SDS011;27010;47.718;12.912;2023-09-30T08:09:05;16.65;;;7.40;;
41275;SDS011;27010;47.718;12.912;2023-09-30T08:12:13;13.52;;;7.88;;
41275;SDS011;27010;47.718;12.912;2023-09-30T08:15:15;13.98;;;7.40;;
41275;SDS011;27010;47.718;12.912;2023-09-30T08:18:18;15.68;;;7.25;;
41275;SDS011;27010;47.718;12.912;2023-09-30T08:21:20;15.90;;;8.18;;
41275;SDS011;27010;47.718;12.912;2023-09-30T08:24:22;17.60;;;7.65;;
41275;SDS011;27010;47.718;12.912;2023-09-30T08:27:24;16.27;;;7.97;;
41275;SDS011;27010;47.718;12.912;2023-09-30T08:30:27;16.67;;;7.45;;
41275;SDS011;27010;47.718;12.912;2023-09-30T08:33:30;17.33;;;8.30;;
41275;SDS011;27010;47.718;12.912;2023-09-30T08:36:33;17.70;;;8.32;;
41275;SDS011;27010;47.718;12.912;2023-09-30T08:39:38;14.48;;;7.00;;
41275;SDS011;27010;47.718;12.912;2023-09-30T08:42:45;16.02;;;8.15;;
41275;SDS011;27010;47.718;12.912;2023-09-30T08:45:47;18.40;;;7.80;;
41275;SDS011;27010;47.718;12.912;2023-09-30T08:48:53;16.95;;;8.00;;
41275;SDS011;27010;47.718;12.912;2023-09-30T08:51:57;15.95;;;7.88;;
41275;SDS011;27010;47.718;12.912;2023-09-30T08:55:01;14.00;;;6.95;;
41275;SDS011;27010;47.718;12.912;2023-09-30T08:58:03;15.15;;;8.18;;
41275;SDS011;27010;47.718;12.912;2023-09-30T09:01:06;12.90;;;6.03;;
41275;SDS011;27010;47.718;12.912;2023-09-30T09:04:11;13.93;;;6.65;;
41275;SDS011;27010;47.718;12.912;2023-09-30T09:07:14;15.80;;;7.22;;
41275;SDS011;27010;47.718;12.912;2023-09-30T09:10:16;16.77;;;7.78;;
41275;SDS011;27010;47.718;12.912;2023-09-30T09:13:18;16.17;;;7.72;;
41275;SDS011;27010;47.718;12.912;2023-09-30T09:16:21;15.65;;;7.28;;
41275;SDS011;27010;47.718;12.912;2023-09-30T09:19:25;16.10;;;7.75;;
41275;SDS011;27010;47.718;12.912;2023-09-30T09:22:40;15.32;;;6.88;;
41275;SDS011;27010;47.718;12.912;2023-09-30T09:25:45;16.33;;;7.75;;
41275;SDS011;27010;47.718;12.912;2023-09-30T09:28:55;17.60;;;8.05;;
41275;SDS011;27010;47.718;12.912;2023-09-30T09:32:07;16.75;;;8.80;;
41275;SDS011;27010;47.718;12.912;2023-09-30T09:35:10;18.77;;;8.23;;
41275;SDS011;27010;47.718;12.912;2023-09-30T09:38:13;17.50;;;7.30;;
41275;SDS011;27010;47.718;12.912;2023-09-30T09:41:15;19.08;;;8.35;;
41275;SDS011;27010;47.718;12.912;2023-09-30T09:44:19;21.05;;;8.15;;
41275;SDS011;27010;47.718;12.912;2023-09-30T09:47:23;19.33;;;8.60;;
41275;SDS011;27010;47.718;12.912;2023-09-30T09:50:26;14.23;;;8.05;;
41275;SDS011;27010;47.718;12.912;2023-09-30T09:53:29;15.82;;;7.63;;
41275;SDS011;27010;47.718;12.912;2023-09-30T09:56:33;18.95;;;8.48;;
41275;SDS011;27010;47.718;12.912;2023-09-30T09:59:36;18.50;;;7.85;;
41275;SDS011;27010;47.718;12.912;2023-09-30T10:02:41;15.43;;;7.55;;
41275;SDS011;27010;47.718;12.912;2023-09-30T10:05:43;14.60;;;7.80;;
41275;SDS011;27010;47.718;12.912;2023-09-30T10:08:46;20.90;;;9.02;;
41275;SDS011;27010;47.718;12.912;2023-09-30T10:11:49;16.23;;;8.18;;
41275;SDS011;27010;47.718;12.912;2023-09-30T10:14:52;18.27;;;8.43;;
41275;SDS011;27010;47.718;12.912;2023-09-30T10:21:07;20.67;;;8.57;;
41275;SDS011;27010;47.718;12.912;2023-09-30T10:30:31;22.75;;;8.13;;
41275;SDS011;27010;47.718;12.912;2023-09-30T10:33:34;21.98;;;9.30;;
41275;SDS011;27010;47.718;12.912;2023-09-30T10:36:36;16.65;;;7.80;;
41275;SDS011;27010;47.718;12.912;2023-09-30T10:42:57;18.75;;;8.60;;
41275;SDS011;27010;47.718;12.912;2023-09-30T10:45:59;17.20;;;8.23;;
41275;SDS011;27010;47.718;12.912;2023-09-30T10:49:48;17.20;;;8.35;;
41275;SDS011;27010;47.718;12.912;2023-09-30T10:52:24;17.48;;;8.63;;
41275;SDS011;27010;47.718;12.912;2023-09-30T10:55:27;20.05;;;8.93;;
41275;SDS011;27010;47.718;12.912;2023-09-30T10:58:46;18.98;;;8.95;;
41275;SDS011;27010;47.718;12.912;2023-09-30T11:01:53;22.15;;;9.25;;
41275;SDS011;27010;47.718;12.912;2023-09-30T11:04:55;18.17;;;9.02;;
41275;SDS011;27010;47.718;12.912;2023-09-30T11:07:57;17.13;;;8.30;;
41275;SDS011;27010;47.718;12.912;2023-09-30T11:11:02;18.48;;;9.00;;
41275;SDS011;27010;47.718;12.912;2023-09-30T11:14:16;19.40;;;8.98;;
41275;SDS011;27010;47.718;12.912;2023-09-30T11:17:30;19.55;;;8.88;;
41275;SDS011;27010;47.718;12.912;2023-09-30T11:20:32;20.08;;;8.60;;
41275;SDS011;27010;47.718;12.912;2023-09-30T11:23:34;18.65;;;9.52;;
41275;SDS011;27010;47.718;12.912;2023-09-30T11:26:37;20.10;;;8.93;;
41275;SDS011;27010;47.718;12.912;2023-09-30T11:29:49;21.67;;;10.23;;
41275;SDS011;27010;47.718;12.912;2023-09-30T11:32:58;20.30;;;9.55;;
41275;SDS011;27010;47.718;12.912;2023-09-30T11:36:03;21.70;;;9.38;;
41275;SDS011;27010;47.718;12.912;2023-09-30T11:39:07;21.48;;;8.90;;
41275;SDS011;27010;47.718;12.912;2023-09-30T11:42:17;20.73;;;9.32;;
41275;SDS011;27010;47.718;12.912;2023-09-30T11:45:21;19.20;;;8.65;;
41275;SDS011;27010;47.718;12.912;2023-09-30T11:48:26;21.02;;;10.25;;
41275;SDS011;27010;47.718;12.912;2023-09-30T11:51:30;18.05;;;9.00;;
41275;SDS011;27010;47.718;12.912;2023-09-30T11:54:40;18.90;;;8.93;;
41275;SDS011;27010;47.718;12.912;2023-09-30T11:57:46;19.75;;;9.27;;
41275;SDS011;27010;47.718;12.912;2023-09-30T12:00:49;22.27;;;9.73;;
41275;SDS011;27010;47.718;12.912;2023-09-30T12:03:54;16.63;;;8.45;;
41275;SDS011;27010;47.718;12.912;2023-09-30T12:06:59;20.98;;;10.77;;
41275;SDS011;27010;47.718;12.912;2023-09-30T12:10:01;22.83;;;9.52;;
41275;SDS011;27010;47.718;12.912;2023-09-30T12:13:03;18.45;;;8.25;;
41275;SDS011;27010;47.718;12.912;2023-09-30T12:16:05;18.83;;;9.25;;
41275;SDS011;27010;47.718;12.912;2023-09-30T12:19:07;19.73;;;9.05;;
41275;SDS011;27010;47.718;12.912;2023-09-30T12:22:10;19.15;;;9.10;;
41275;SDS011;27010;47.718;12.912;2023-09-30T12:25:12;19.60;;;9.48;;
41275;SDS011;27010;47.718;12.912;2023-09-30T12:28:15;19.05;;;8.35;;
41275;SDS011;27010;47.718;12.912;2023-09-30T12:31:19;19.48;;;9.32;;
41275;SDS011;27010;47.718;12.912;2023-09-30T12:34:24;22.92;;;8.77;;
41275;SDS011;27010;47.718;12.912;2023-09-30T12:37:29;18.45;;;9.48;;
41275;SDS011;27010;47.718;12.912;2023-09-30T12:40:31;21.88;;;9.60;;
41275;SDS011;27010;47.718;12.912;2023-09-30T12:43:36;21.13;;;9.05;;
41275;SDS011;27010;47.718;12.912;2023-09-30T12:46:39;19.08;;;9.07;;
41275;SDS011;27010;47.718;12.912;2023-09-30T12:49:42;22.25;;;10.18;;
41275;SDS011;27010;47.718;12.912;2023-09-30T12:52:45;22.55;;;9.82;;
41275;SDS011;27010;47.718;12.912;2023-09-30T12:55:47;21.35;;;9.13;;
41275;SDS011;27010;47.718;12.912;2023-09-30T12:58:50;19.50;;;9.55;;
41275;SDS011;27010;47.718;12.912;2023-09-30T13:01:53;22.10;;;9.50;;
41275;SDS011;27010;47.718;12.912;2023-09-30T13:04:56;21.20;;;9.40;;
41275;SDS011;27010;47.718;12.912;2023-09-30T13:07:58;22.65;;;9.18;;
41275;SDS011;27010;47.718;12.912;2023-09-30T13:11:00;19.95;;;9.60;;
41275;SDS011;27010;47.718;12.912;2023-09-30T13:14:04;20.55;;;9.02;;
41275;SDS011;27010;47.718;12.912;2023-09-30T13:17:06;19.42;;;9.15;;
41275;SDS011;27010;47.718;12.912;2023-09-30T13:20:11;20.27;;;9.55;;
41275;SDS011;27010;47.718;12.912;2023-09-30T13:23:13;19.10;;;9.27;;
41275;SDS011;27010;47.718;12.912;2023-09-30T13:26:15;22.50;;;9.90;;
41275;SDS011;27010;47.718;12.912;2023-09-30T13:29:19;22.35;;;9.45;;
41275;SDS011;27010;47.718;12.912;2023-09-30T13:32:21;21.40;;;10.20;;
41275;SDS011;27010;47.718;12.912;2023-09-30T13:35:23;21.90;;;9.18;;
41275;SDS011;27010;47.718;12.912;2023-09-30T13:38:25;21.40;;;9.18;;
41275;SDS011;27010;47.718;12.912;2023-09-30T13:41:28;21.33;;;9.60;;
41275;SDS011;27010;47.718;12.912;2023-09-30T13:44:30;19.42;;;9.23;;
41275;SDS011;27010;47.718;12.912;2023-09-30T13:47:32;22.90;;;10.57;;
41275;SDS011;27010;47.718;12.912;2023-09-30T13:50:34;23.08;;;9.80;;
41275;SDS011;27010;47.718;12.912;2023-09-30T13:53:37;21.10;;;10.05;;
41275;SDS011;27010;47.718;12.912;2023-09-30T13:56:40;21.08;;;9.25;;
41275;SDS011;27010;47.718;12.912;2023-09-30T13:59:42;22.15;;;10.10;;
41275;SDS011;27010;47.718;12.912;2023-09-30T14:02:44;21.92;;;10.35;;
41275;SDS011;27010;47.718;12.912;2023-09-30T14:05:47;20.00;;;9.00;;
41275;SDS011;27010;47.718;12.912;2023-09-30T14:08:49;19.80;;;9.48;;
41275;SDS011;27010;47.718;12.912;2023-09-30T14:11:51;22.10;;;9.23;;
41275;SDS011;27010;47.718;12.912;2023-09-30T14:14:53;21.73;;;10.55;;
41275;SDS011;27010;47.718;12.912;2023-09-30T14:17:59;21.73;;;9.98;;
41275;SDS011;27010;47.718;12.912;2023-09-30T14:21:01;20.90;;;10.05;;
41275;SDS011;27010;47.718;12.912;2023-09-30T14:24:04;20.65;;;9.73;;
41275;SDS011;27010;47.718;12.912;2023-09-30T14:27:06;20.90;;;9.07;;
41275;SDS011;27010;47.718;12.912;2023-09-30T14:30:09;23.52;;;10.05;;
41275;SDS011;27010;47.718;12.912;2023-09-30T14:33:11;24.20;;;11.35;;
41275;SDS011;27010;47.718;12.912;2023-09-30T14:36:13;23.77;;;10.18;;
41275;SDS011;27010;47.718;12.912;2023-09-30T14:39:16;20.73;;;9.95;;
41275;SDS011;27010;47.718;12.912;2023-09-30T14:42:18;23.73;;;10.57;;
41275;SDS011;27010;47.718;12.912;2023-09-30T14:45:21;26.63;;;10.85;;
41275;SDS011;27010;47.718;12.912;2023-09-30T14:48:23;24.10;;;10.63;;
41275;SDS011;27010;47.718;12.912;2023-09-30T14:51:25;26.75;;;10.13;;
41275;SDS011;27010;47.718;12.912;2023-09-30T14:54:28;22.48;;;10.68;;
41275;SDS011;27010;47.718;12.912;2023-09-30T14:57:32;26.83;;;11.57;;
41275;SDS011;27010;47.718;12.912;2023-09-30T15:00:34;24.92;;;11.88;;
41275;SDS011;27010;47.718;12.912;2023-09-30T15:03:36;22.23;;;10.60;;
41275;SDS011;27010;47.718;12.912;2023-09-30T15:06:41;24.08;;;10.88;;
41275;SDS011;27010;47.718;12.912;2023-09-30T15:09:43;22.88;;;10.60;;
41275;SDS011;27010;47.718;12.912;2023-09-30T15:12:45;21.33;;;10.27;;
41275;SDS011;27010;47.718;12.912;2023-09-30T15:15:48;25.83;;;10.27;;
41275;SDS011;27010;47.718;12.912;2023-09-30T15:18:51;19.88;;;9.75;;
41275;SDS011;27010;47.718;12.912;2023-09-30T15:21:53;21.38;;;9.93;;
41275;SDS011;27010;47.718;12.912;2023-09-30T15:24:55;22.35;;;9.77;;
41275;SDS011;27010;47.718;12.912;2023-09-30T15:27:57;25.77;;;9.93;;
41275;SDS011;27010;47.718;12.912;2023-09-30T15:31:00;25.17;;;10.40;;
41275;SDS011;27010;47.718;12.912;2023-09-30T15:34:05;23.73;;;9.23;;
41275;SDS011;27010;47.718;12.912;2023-09-30T15:37:10;24.73;;;10.68;;
41275;SDS011;27010;47.718;12.912;2023-09-30T15:40:13;22.10;;;10.45;;
41275;SDS011;27010;47.718;12.912;2023-09-30T15:43:19;24.17;;;10.38;;
41275;SDS011;27010;47.718;12.912;2023-09-30T15:46:24;21.88;;;10.90;;
41275;SDS011;27010;47.718;12.912;2023-09-30T15:49:28;20.40;;;10.18;;
41275;SDS011;27010;47.718;12.912;2023-09-30T15:52:30;21.92;;;10.60;;
41275;SDS011;27010;47.718;12.912;2023-09-30T15:55:33;22.52;;;10.20;;
41275;SDS011;27010;47.718;12.912;2023-09-30T15:58:35;22.33;;;9.98;;
41275;SDS011;27010;47.718;12.912;2023-09-30T16:01:39;25.65;;;10.68;;
41275;SDS011;27010;47.718;12.912;2023-09-30T16:04:42;21.98;;;10.55;;
41275;SDS011;27010;47.718;12.912;2023-09-30T16:07:45;24.13;;;11.07;;
41275;SDS011;27010;47.718;12.912;2023-09-30T16:10:51;19.98;;;10.32;;
41275;SDS011;27010;47.718;12.912;2023-09-30T16:13:59;23.95;;;10.70;;
41275;SDS011;27010;47.718;12.912;2023-09-30T16:17:07;25.58;;;11.05;;
41275;SDS011;27010;47.718;12.912;2023-09-30T16:20:11;20.67;;;9.88;;
41275;SDS011;27010;47.718;12.912;2023-09-30T16:23:14;23.75;;;10.23;;
41275;SDS011;27010;47.718;12.912;2023-09-30T16:26:16;19.63;;;9.23;;
41275;SDS011;27010;47.718;12.912;2023-09-30T16:29:18;24.77;;;11.47;;
41275;SDS011;27010;47.718;12.912;2023-09-30T16:32:20;22.53;;;10.17;;
41275;SDS011;27010;47.718;12.912;2023-09-30T16:35:22;25.50;;;10.47;;
41275;SDS011;27010;47.718;12.912;2023-09-30T16:38:25;20.33;;;10.00;;
41275;SDS011;27010;47.718;12.912;2023-09-30T16:41:26;24.43;;;10.20;;
41275;SDS011;27010;47.718;12.912;2023-09-30T16:44:29;24.67;;;10.27;;
41275;SDS011;27010;47.718;12.912;2023-09-30T16:47:31;24.47;;;10.37;;
41275;SDS011;27010;47.718;12.912;2023-09-30T16:50:34;22.47;;;10.43;;
41275;SDS011;27010;47.718;12.912;2023-09-30T16:53:36;25.70;;;11.13;;
41275;SDS011;27010;47.718;12.912;2023-09-30T16:56:39;20.70;;;10.03;;
41275;SDS011;27010;47.718;12.912;2023-09-30T16:59:41;24.93;;;10.90;;
41275;SDS011;27010;47.718;12.912;2023-09-30T17:02:43;23.43;;;10.30;;
41275;SDS011;27010;47.718;12.912;2023-09-30T17:05:46;25.17;;;10.87;;
41275;SDS011;27010;47.718;12.912;2023-09-30T17:08:48;27.63;;;11.13;;
41275;SDS011;27010;47.718;12.912;2023-09-30T17:11:50;22.90;;;10.87;;
41275;SDS011;27010;47.718;12.912;2023-09-30T17:14:52;30.30;;;12.07;;
41275;SDS011;27010;47.718;12.912;2023-09-30T17:17:58;26.17;;;11.87;;
41275;SDS011;27010;47.718;12.912;2023-09-30T17:21:01;26.57;;;10.93;;
41275;SDS011;27010;47.718;12.912;2023-09-30T17:24:04;26.93;;;11.67;;
41275;SDS011;27010;47.718;12.912;2023-09-30T17:27:06;28.20;;;12.30;;
41275;SDS011;27010;47.718;12.912;2023-09-30T17:30:10;28.93;;;12.80;;
41275;SDS011;27010;47.718;12.912;2023-09-30T17:33:27;30.00;;;13.10;;
41275;SDS011;27010;47.718;12.912;2023-09-30T17:36:29;27.07;;;12.27;;
41275;SDS011;27010;47.718;12.912;2023-09-30T17:39:31;28.27;;;12.30;;
41275;SDS011;27010;47.718;12.912;2023-09-30T17:42:33;26.40;;;11.07;;
41275;SDS011;27010;47.718;12.912;2023-09-30T17:45:35;26.67;;;11.23;;
41275;SDS011;27010;47.718;12.912;2023-09-30T17:48:38;28.43;;;12.07;;
41275;SDS011;27010;47.718;12.912;2023-09-30T17:51:42;25.10;;;11.20;;
41275;SDS011;27010;47.718;12.912;2023-09-30T17:54:48;31.00;;;13.30;;
41275;SDS011;27010;47.718;12.912;2023-09-30T17:57:51;29.47;;;11.93;;
41275;SDS011;27010;47.718;12.912;2023-09-30T18:00:53;29.87;;;12.97;;
41275;SDS011;27010;47.718;12.912;2023-09-30T18:03:57;29.03;;;13.13;;